createdAt,value
2022-11-03T00:01:47.040Z,2.88
2022-11-03T00:04:15.752Z,2.95
2022-11-03T00:06:43.077Z,4.78
2022-11-03T00:09:10.365Z,3.05
2022-11-03T00:11:37.703Z,3.10
2022-11-03T00:14:04.879Z,2.10
2022-11-03T00:16:32.192Z,2.08
2022-11-03T00:18:59.378Z,3.67
2022-11-03T00:21:26.602Z,1.92
2022-11-03T00:23:54.028Z,2.45
2022-11-03T00:26:21.538Z,2.10
2022-11-03T00:28:48.725Z,2.60
2022-11-03T00:31:16.037Z,2.78
2022-11-03T00:33:43.313Z,3.20
2022-11-03T00:36:11.845Z,4.15
2022-11-03T00:38:39.127Z,4.93
2022-11-03T00:41:06.804Z,4.32
2022-11-03T00:43:34.244Z,3.08
2022-11-03T00:46:01.958Z,2.42
2022-11-03T00:48:34.847Z,1.85
2022-11-03T00:51:02.377Z,1.70
2022-11-03T00:53:29.576Z,1.25
2022-11-03T00:55:56.975Z,2.33
2022-11-03T00:58:24.495Z,1.00
2022-11-03T01:00:51.881Z,1.05
2022-11-03T01:03:19.272Z,1.20
2022-11-03T01:06:05.572Z,0.77
2022-11-03T01:08:33.226Z,1.23
2022-11-03T01:11:19.013Z,0.82
2022-11-03T01:13:46.673Z,0.65
2022-11-03T01:16:14.004Z,0.82
2022-11-03T01:18:41.299Z,0.90
2022-11-03T01:21:08.510Z,0.65
2022-11-03T01:23:35.788Z,0.60
2022-11-03T01:26:03.087Z,0.88
2022-11-03T01:28:30.340Z,1.10
2022-11-03T01:30:57.528Z,0.57
2022-11-03T01:33:24.770Z,1.55
2022-11-03T01:35:51.946Z,0.70
2022-11-03T01:38:19.324Z,0.47
2022-11-03T01:40:46.487Z,1.23
2022-11-03T01:43:13.703Z,0.93
2022-11-03T01:45:40.994Z,0.63
2022-11-03T01:48:08.305Z,0.40
2022-11-03T01:50:35.488Z,0.70
2022-11-03T01:53:02.744Z,0.47
2022-11-03T01:55:30.012Z,0.52
2022-11-03T01:57:57.224Z,0.40
2022-11-03T02:00:24.779Z,0.60
2022-11-03T02:02:52.034Z,0.68
2022-11-03T02:05:19.347Z,0.57
2022-11-03T02:07:46.624Z,2.20
2022-11-03T02:10:13.953Z,0.98
2022-11-03T02:12:41.180Z,0.60
2022-11-03T02:15:08.405Z,2.03
2022-11-03T02:17:35.683Z,0.90
2022-11-03T02:20:03.007Z,0.63
2022-11-03T02:22:30.255Z,0.60
2022-11-03T02:24:57.474Z,0.60
2022-11-03T02:27:24.702Z,0.60
2022-11-03T02:29:52.316Z,0.60
2022-11-03T02:32:19.554Z,1.65
2022-11-03T02:34:46.825Z,0.90
2022-11-03T02:37:14.183Z,0.65
2022-11-03T02:39:41.401Z,0.90
2022-11-03T02:42:08.669Z,0.80
2022-11-03T02:44:35.954Z,1.02
2022-11-03T02:47:03.255Z,1.48
2022-11-03T02:49:30.426Z,0.90
2022-11-03T02:51:57.697Z,1.30
2022-11-03T02:54:25.077Z,0.85
2022-11-03T02:56:52.354Z,1.40
2022-11-03T02:59:19.530Z,1.23
2022-11-03T03:01:50.948Z,0.90
2022-11-03T03:04:18.797Z,1.85
2022-11-03T03:06:46.088Z,1.63
2022-11-03T03:09:13.313Z,1.52
2022-11-03T03:11:40.564Z,1.10
2022-11-03T03:14:07.775Z,1.42
2022-11-03T03:16:35.003Z,1.70
2022-11-03T03:19:02.241Z,1.83
2022-11-03T03:21:29.413Z,2.38
2022-11-03T03:23:56.681Z,2.30
2022-11-03T03:26:23.940Z,1.98
2022-11-03T03:28:51.173Z,1.90
2022-11-03T03:31:18.354Z,2.30
2022-11-03T03:33:47.762Z,2.55
2022-11-03T03:36:15.521Z,2.15
2022-11-03T03:38:42.791Z,2.38
2022-11-03T03:41:10.945Z,3.20
2022-11-03T03:43:38.239Z,2.30
2022-11-03T03:46:05.559Z,2.13
2022-11-03T03:48:32.723Z,2.88
2022-11-03T03:51:00.069Z,2.45
2022-11-03T03:53:27.236Z,2.35
2022-11-03T03:55:54.420Z,2.88
2022-11-03T03:58:21.606Z,1.92
2022-11-03T04:00:48.917Z,2.00
2022-11-03T04:03:16.649Z,2.80
2022-11-03T04:05:43.884Z,2.05
2022-11-03T04:08:11.089Z,2.25
2022-11-03T04:10:38.289Z,2.95
2022-11-03T04:13:24.339Z,1.67
2022-11-03T04:16:10.412Z,1.92
2022-11-03T04:18:56.597Z,1.88
2022-11-03T04:21:42.589Z,1.83
2022-11-03T04:24:09.947Z,1.70
2022-11-03T04:26:37.103Z,1.52
2022-11-03T04:29:04.312Z,1.48
2022-11-03T04:31:31.476Z,3.17
2022-11-03T04:33:58.756Z,1.50
2022-11-03T04:36:25.936Z,1.90
2022-11-03T04:38:53.150Z,1.77
2022-11-03T04:41:20.327Z,1.70
2022-11-03T04:43:47.757Z,2.45
2022-11-03T04:46:14.937Z,1.02
2022-11-03T04:48:42.153Z,1.60
2022-11-03T04:51:09.304Z,1.63
2022-11-03T04:53:36.596Z,1.17
2022-11-03T04:56:07.404Z,1.35
2022-11-03T04:58:34.794Z,1.05
2022-11-03T05:01:02.182Z,1.70
2022-11-03T05:03:29.455Z,1.15
2022-11-03T05:05:56.594Z,1.00
2022-11-03T05:08:23.800Z,1.20
2022-11-03T05:10:51.003Z,1.30
2022-11-03T05:13:18.219Z,1.45
2022-11-03T05:15:45.619Z,1.63
2022-11-03T05:18:12.832Z,1.10
2022-11-03T05:20:39.966Z,1.40
2022-11-03T05:23:07.501Z,1.10
2022-11-03T05:25:35.385Z,2.25
2022-11-03T05:28:02.749Z,1.17
2022-11-03T05:30:30.273Z,1.60
2022-11-03T05:32:57.514Z,1.20
2022-11-03T05:35:24.678Z,1.85
2022-11-03T05:37:51.930Z,1.30
2022-11-03T05:40:19.091Z,1.67
2022-11-03T05:42:46.302Z,2.13
2022-11-03T05:45:14.051Z,1.58
2022-11-03T05:47:41.305Z,1.25
2022-11-03T05:50:08.471Z,1.92
2022-11-03T05:52:35.715Z,2.15
2022-11-03T05:55:02.922Z,2.55
2022-11-03T05:57:30.179Z,2.10
2022-11-03T05:59:57.413Z,2.63
2022-11-03T06:02:24.650Z,2.55
2022-11-03T06:04:51.855Z,2.33
2022-11-03T06:07:19.227Z,1.95
2022-11-03T06:09:46.458Z,2.90
2022-11-03T06:12:13.676Z,2.95
2022-11-03T06:14:40.870Z,2.65
2022-11-03T06:17:08.155Z,3.10
2022-11-03T06:19:35.303Z,3.17
2022-11-03T06:22:02.512Z,3.47
2022-11-03T06:24:30.808Z,2.30
2022-11-03T06:26:58.732Z,2.97
2022-11-03T06:29:25.980Z,2.00
2022-11-03T06:31:53.238Z,1.00
2022-11-03T06:34:20.379Z,0.73
2022-11-03T06:36:47.668Z,0.73
2022-11-03T06:39:14.833Z,0.70
2022-11-03T06:41:42.050Z,0.40
2022-11-03T06:44:09.241Z,0.40
2022-11-03T06:46:36.475Z,0.50
2022-11-03T06:49:05.753Z,0.90
2022-11-03T06:51:32.991Z,1.10
2022-11-03T06:54:00.237Z,2.35
2022-11-03T06:56:27.401Z,1.10
2022-11-03T06:58:54.571Z,1.52
2022-11-03T07:01:21.988Z,1.60
2022-11-03T07:03:49.498Z,1.63
2022-11-03T07:06:16.728Z,1.77
2022-11-03T07:08:44.161Z,2.53
2022-11-03T07:11:11.366Z,1.60
2022-11-03T07:13:38.665Z,2.17
2022-11-03T07:16:06.349Z,1.30
2022-11-03T07:18:33.629Z,1.67
2022-11-03T07:21:00.866Z,2.58
2022-11-03T07:23:28.078Z,1.10
2022-11-03T07:25:55.353Z,1.92
2022-11-03T07:28:22.584Z,1.15
2022-11-03T07:30:49.794Z,1.20
2022-11-03T07:33:16.956Z,1.20
2022-11-03T07:38:31.414Z,1.30
2022-11-03T07:40:59.030Z,1.88
2022-11-03T07:43:26.305Z,1.38
2022-11-03T07:45:54.198Z,1.77
2022-11-03T07:48:21.487Z,1.27
2022-11-03T07:50:48.760Z,1.30
2022-11-03T07:53:15.990Z,1.33
2022-11-03T07:55:43.157Z,1.00
2022-11-03T07:58:10.425Z,1.30
2022-11-03T08:00:37.589Z,0.93
2022-11-03T08:03:05.139Z,1.48
2022-11-03T08:05:32.529Z,1.20
2022-11-03T08:07:59.805Z,1.15
2022-11-03T08:10:26.966Z,1.65
2022-11-03T08:12:54.230Z,1.13
2022-11-03T08:15:21.472Z,1.08
2022-11-03T08:17:53.463Z,1.10
2022-11-03T08:20:23.187Z,0.98
2022-11-03T08:23:19.628Z,1.02
2022-11-03T08:25:37.689Z,1.60
2022-11-03T08:28:05.024Z,2.17
2022-11-03T08:30:32.220Z,1.13
2022-11-03T08:32:59.674Z,1.67
2022-11-03T08:35:30.048Z,1.50
2022-11-03T08:38:00.322Z,1.58
2022-11-03T08:40:27.472Z,1.55
2022-11-03T08:42:54.773Z,1.23
2022-11-03T08:45:22.217Z,1.08
2022-11-03T08:47:49.464Z,1.08
2022-11-03T08:50:16.688Z,1.20
2022-11-03T08:52:44.073Z,1.65
2022-11-03T08:55:11.259Z,1.65
2022-11-03T08:57:41.347Z,1.33
2022-11-03T09:00:08.609Z,1.70
2022-11-03T09:02:35.848Z,1.48
2022-11-03T09:05:03.806Z,1.55
2022-11-03T09:10:18.543Z,1.35
2022-11-03T09:12:46.527Z,1.50
2022-11-03T09:15:13.772Z,1.58
2022-11-03T09:17:43.291Z,1.20
2022-11-03T09:20:12.877Z,1.88
2022-11-03T09:22:40.276Z,1.85
2022-11-03T09:25:07.557Z,1.63
2022-11-03T09:27:34.739Z,1.55
2022-11-03T09:30:16.969Z,1.15
2022-11-03T09:32:44.433Z,1.35
2022-11-03T09:35:12.290Z,1.48
2022-11-03T09:37:39.549Z,1.30
2022-11-03T09:40:06.884Z,1.15
2022-11-03T09:42:34.597Z,1.20
2022-11-03T09:45:02.002Z,0.90
2022-11-03T09:47:29.469Z,1.50
2022-11-03T09:49:56.703Z,1.30
2022-11-03T09:52:24.164Z,2.10
2022-11-03T09:54:51.383Z,1.77
2022-11-03T09:57:18.996Z,1.50
2022-11-03T09:59:46.385Z,1.90
2022-11-03T10:02:13.656Z,1.30
2022-11-03T10:04:40.948Z,1.75
2022-11-03T10:07:08.171Z,1.45
2022-11-03T10:09:35.632Z,1.30
2022-11-03T10:12:02.931Z,1.27
2022-11-03T10:14:30.115Z,1.40
2022-11-03T10:16:57.484Z,1.50
2022-11-03T10:19:25.877Z,1.48
2022-11-03T10:21:53.084Z,1.40
2022-11-03T10:24:20.410Z,1.42
2022-11-03T10:26:47.988Z,1.45
2022-11-03T10:29:15.566Z,1.48
2022-11-03T10:31:42.924Z,1.20
2022-11-03T10:34:10.328Z,1.40
2022-11-03T10:36:37.642Z,1.17
2022-11-03T10:39:04.977Z,1.30
2022-11-03T10:41:32.368Z,2.20
2022-11-03T10:43:59.599Z,1.33
2022-11-03T10:49:14.826Z,1.45
2022-11-03T10:51:42.072Z,2.13
2022-11-03T10:54:09.433Z,1.73
2022-11-03T10:56:36.724Z,1.92
2022-11-03T10:59:03.948Z,1.25
2022-11-03T11:01:31.264Z,1.15
2022-11-03T11:03:58.768Z,1.20
2022-11-03T11:06:26.056Z,1.52
2022-11-03T11:08:58.882Z,1.40
2022-11-03T11:11:27.199Z,1.33
2022-11-03T11:13:54.516Z,1.17
2022-11-03T11:16:21.670Z,1.13
2022-11-03T11:18:48.957Z,1.15
2022-11-03T11:21:16.229Z,1.30
2022-11-03T11:23:43.881Z,1.17
2022-11-03T11:26:11.428Z,1.05
2022-11-03T11:28:38.895Z,1.52
2022-11-03T11:31:06.288Z,1.30
2022-11-03T11:33:33.533Z,1.70
2022-11-03T11:36:00.840Z,1.50
2022-11-03T11:38:28.028Z,1.33
2022-11-03T11:40:55.275Z,2.13
2022-11-03T11:43:22.452Z,1.40
2022-11-03T11:49:07.465Z,1.50
2022-11-03T11:51:34.844Z,1.48
2022-11-03T11:54:17.478Z,3.83
2022-11-03T11:56:45.439Z,1.55
2022-11-03T11:59:12.694Z,1.85
2022-11-03T12:01:41.464Z,1.95
2022-11-03T12:04:09.005Z,2.10
2022-11-03T12:06:37.076Z,3.65
2022-11-03T12:09:04.317Z,2.67
2022-11-03T12:11:31.706Z,3.55
2022-11-03T12:13:58.938Z,2.83
2022-11-03T12:16:26.915Z,2.25
2022-11-03T12:18:54.424Z,2.53
2022-11-03T12:21:21.857Z,2.55
2022-11-03T12:24:10.108Z,2.20
2022-11-03T12:26:40.322Z,2.17
2022-11-03T12:29:07.678Z,1.63
2022-11-03T12:31:37.035Z,1.70
2022-11-03T12:34:04.602Z,1.90
2022-11-03T12:36:31.969Z,2.53
2022-11-03T12:38:59.500Z,2.50
2022-11-03T12:41:27.005Z,2.28
2022-11-03T12:43:56.372Z,2.17
2022-11-03T12:46:23.837Z,1.98
2022-11-03T12:48:51.139Z,2.33
2022-11-03T12:51:19.929Z,2.20
2022-11-03T12:53:47.739Z,1.83
2022-11-03T12:56:15.177Z,1.83
2022-11-03T12:58:42.684Z,1.80
2022-11-03T13:01:16.459Z,2.10
2022-11-03T13:03:43.992Z,1.95
2022-11-03T13:06:12.119Z,2.17
2022-11-03T13:08:39.414Z,1.85
2022-11-03T13:11:26.461Z,2.75
2022-11-03T13:13:54.330Z,2.45
2022-11-03T13:16:22.139Z,2.13
2022-11-03T13:18:52.945Z,1.50
2022-11-03T13:21:24.622Z,1.35
2022-11-03T13:23:53.506Z,1.20
2022-11-03T13:26:20.750Z,1.20
2022-11-03T13:28:48.093Z,0.98
2022-11-03T13:31:15.419Z,0.75
2022-11-03T13:33:43.512Z,0.85
2022-11-03T13:36:11.913Z,1.40
2022-11-03T13:38:39.152Z,0.88
2022-11-03T13:41:09.071Z,1.40
2022-11-03T13:43:37.130Z,1.00
2022-11-03T13:46:05.291Z,1.48
2022-11-03T13:51:23.948Z,1.00
2022-11-03T13:59:35.909Z,2.10
2022-11-03T14:04:50.720Z,1.08
2022-11-03T14:07:18.005Z,1.23
2022-11-03T14:09:45.252Z,0.93
2022-11-03T14:12:31.112Z,1.60
2022-11-03T14:14:58.655Z,1.45
2022-11-03T14:17:28.281Z,1.52
2022-11-03T14:20:00.803Z,1.60
2022-11-03T14:22:31.352Z,1.40
2022-11-03T14:24:58.639Z,1.23
2022-11-03T14:27:26.268Z,1.63
2022-11-03T14:29:53.756Z,1.83
2022-11-03T14:32:21.084Z,1.42
2022-11-03T14:34:48.721Z,1.60
2022-11-03T14:37:16.296Z,1.77
2022-11-03T14:39:44.105Z,1.60
2022-11-03T14:42:15.598Z,1.92
2022-11-03T14:44:43.436Z,1.98
2022-11-03T14:47:10.744Z,2.05
2022-11-03T14:49:38.098Z,2.60
2022-11-03T14:52:05.456Z,2.47
2022-11-03T14:54:32.954Z,2.42
2022-11-03T14:57:00.153Z,2.60
2022-11-03T14:59:27.364Z,2.60
2022-11-03T15:01:54.838Z,2.28
2022-11-03T15:04:22.547Z,2.35
2022-11-03T15:06:49.892Z,2.05
2022-11-03T15:09:17.468Z,2.88
2022-11-03T15:11:47.465Z,2.67
2022-11-03T15:14:14.783Z,2.63
2022-11-03T15:17:01.532Z,2.15
2022-11-03T15:19:28.935Z,2.38
2022-11-03T15:21:56.288Z,2.67
2022-11-03T15:27:15.037Z,1.77
2022-11-03T15:29:42.494Z,2.13
2022-11-03T15:32:09.948Z,2.08
2022-11-03T15:34:37.219Z,2.15
2022-11-03T15:37:04.607Z,1.90
2022-11-03T15:39:32.339Z,2.55
2022-11-03T15:42:00.332Z,1.85
2022-11-03T15:44:27.920Z,2.38
2022-11-03T15:46:55.208Z,2.17
2022-11-03T15:49:22.579Z,2.33
2022-11-03T15:51:50.075Z,2.42
2022-11-03T15:54:17.566Z,2.20
2022-11-03T15:56:46.435Z,1.98
2022-11-03T15:59:13.837Z,2.10
2022-11-03T16:01:41.587Z,2.05
2022-11-03T16:04:08.967Z,2.50
2022-11-03T16:07:06.364Z,2.50
2022-11-03T16:09:24.759Z,2.90
2022-11-03T16:11:52.007Z,2.53
2022-11-03T16:14:19.641Z,2.13
2022-11-03T16:16:46.866Z,2.70
2022-11-03T16:19:14.124Z,2.22
2022-11-03T16:21:41.471Z,2.95
2022-11-03T16:24:08.742Z,3.35
2022-11-03T16:26:36.014Z,3.05
2022-11-03T16:29:06.641Z,2.63
2022-11-03T16:31:34.175Z,2.70
2022-11-03T16:34:01.570Z,2.20
2022-11-03T16:36:34.293Z,2.58
2022-11-03T16:39:14.058Z,2.60
2022-11-03T16:41:48.276Z,2.22
2022-11-03T16:44:15.782Z,3.45
2022-11-03T16:46:43.050Z,2.20
2022-11-03T16:49:10.357Z,2.78
2022-11-03T16:51:37.764Z,2.03
2022-11-03T16:54:05.267Z,2.20
2022-11-03T16:56:32.572Z,2.20
2022-11-03T16:59:00.018Z,2.00
2022-11-03T17:01:27.549Z,2.15
2022-11-03T17:03:54.920Z,2.30
2022-11-03T17:06:22.331Z,3.05
2022-11-03T17:08:53.700Z,2.92
2022-11-03T17:11:35.942Z,3.85
2022-11-03T17:14:03.761Z,2.47
2022-11-03T17:16:34.058Z,2.30
2022-11-03T17:19:01.382Z,2.20
2022-11-03T17:21:28.635Z,2.60
2022-11-03T17:23:56.636Z,2.10
2022-11-03T17:26:24.414Z,1.80
2022-11-03T17:28:51.748Z,1.80
2022-11-03T17:31:19.051Z,2.05
2022-11-03T17:33:46.379Z,2.45
2022-11-03T17:36:13.692Z,2.40
2022-11-03T17:38:40.937Z,1.95
2022-11-03T17:41:08.183Z,2.33
2022-11-03T17:43:38.182Z,1.70
2022-11-03T17:46:06.081Z,3.08
2022-11-03T17:48:33.653Z,3.70
2022-11-03T17:51:01.113Z,2.80
2022-11-03T17:53:28.803Z,2.80
2022-11-03T17:56:28.417Z,2.92
2022-11-03T17:58:46.477Z,3.97
2022-11-03T18:01:14.750Z,4.18
2022-11-03T18:03:42.065Z,4.93
2022-11-03T18:06:09.447Z,5.20
2022-11-03T18:08:36.803Z,4.90
2022-11-03T18:11:04.155Z,5.32
2022-11-03T18:13:34.364Z,4.93
2022-11-03T18:16:02.024Z,5.72
2022-11-03T18:18:29.425Z,4.97
2022-11-03T18:20:56.715Z,5.78
2022-11-03T18:23:24.152Z,6.30
2022-11-03T18:25:51.778Z,5.07
2022-11-03T18:28:19.612Z,5.60
2022-11-03T18:30:46.992Z,5.15
2022-11-03T18:33:14.293Z,5.57
2022-11-03T18:35:41.639Z,4.90
2022-11-03T18:38:10.745Z,4.97
2022-11-03T18:40:38.853Z,4.93
2022-11-03T18:43:06.336Z,5.03
2022-11-03T18:45:37.127Z,6.55
2022-11-03T18:48:04.457Z,5.18
2022-11-03T18:50:31.693Z,4.47
2022-11-03T18:53:01.579Z,4.32
2022-11-03T18:55:29.209Z,4.35
2022-11-03T18:57:56.483Z,4.28
2022-11-03T19:00:23.839Z,4.43
2022-11-03T19:02:51.011Z,4.55
2022-11-03T19:05:18.447Z,6.72
2022-11-03T19:07:45.711Z,5.90
2022-11-03T19:10:13.201Z,8.05
2022-11-03T19:12:42.377Z,10.60
2022-11-03T19:15:09.831Z,7.75
2022-11-03T19:17:37.284Z,7.38
2022-11-03T19:20:04.690Z,9.55
2022-11-03T19:22:32.028Z,12.05
2022-11-03T19:24:59.375Z,10.95
2022-11-03T19:27:26.677Z,13.05
2022-11-03T19:29:54.222Z,18.38
2022-11-03T19:32:21.520Z,14.63
2022-11-03T19:34:48.841Z,12.88
2022-11-03T19:37:16.103Z,10.30
2022-11-03T19:39:43.653Z,8.13
2022-11-03T19:42:29.481Z,6.80
2022-11-03T19:44:58.296Z,5.70
2022-11-03T19:47:28.329Z,5.35
2022-11-03T19:49:59.330Z,5.45
2022-11-03T19:52:26.731Z,5.32
2022-11-03T19:54:54.033Z,5.18
2022-11-03T19:57:21.561Z,4.32
2022-11-03T19:59:48.925Z,7.50
2022-11-03T20:02:19.552Z,8.15
2022-11-03T20:04:47.620Z,7.50
2022-11-03T20:07:14.820Z,6.85
2022-11-03T20:09:42.171Z,6.75
2022-11-03T20:12:09.429Z,7.35
2022-11-03T20:14:36.795Z,7.13
2022-11-03T20:17:04.041Z,8.77
2022-11-03T20:19:31.324Z,8.45
2022-11-03T20:21:58.656Z,11.75
2022-11-03T20:24:25.866Z,9.52
2022-11-03T20:26:53.248Z,11.15
2022-11-03T20:29:20.421Z,9.63
2022-11-03T20:31:47.809Z,9.52
2022-11-03T20:34:15.143Z,8.90
2022-11-03T20:36:44.878Z,11.68
2022-11-03T20:39:12.102Z,10.20
2022-11-03T20:41:39.320Z,9.30
2022-11-03T20:44:06.615Z,8.43
2022-11-03T20:46:34.455Z,7.13
2022-11-03T20:49:01.705Z,8.13
2022-11-03T20:51:28.991Z,9.27
2022-11-03T20:53:56.268Z,9.13
2022-11-03T20:56:23.638Z,7.53
2022-11-03T20:58:50.949Z,6.03
2022-11-03T21:01:18.330Z,6.70
2022-11-03T21:03:58.835Z,6.47
2022-11-03T21:06:26.419Z,5.85
2022-11-03T21:08:53.720Z,5.50
2022-11-03T21:11:24.258Z,7.10
2022-11-03T21:13:51.520Z,7.68
2022-11-03T21:16:37.588Z,8.75
2022-11-03T21:19:24.044Z,9.52
2022-11-03T21:21:51.506Z,8.40
2022-11-03T21:24:18.830Z,6.43
2022-11-03T21:26:46.856Z,9.63
2022-11-03T21:29:19.626Z,6.45
2022-11-03T21:31:54.956Z,5.97
2022-11-03T21:34:22.239Z,5.80
2022-11-03T21:36:51.968Z,8.23
2022-11-03T21:39:19.563Z,6.28
2022-11-03T21:42:05.668Z,4.88
2022-11-03T21:44:32.936Z,4.43
2022-11-03T21:47:00.201Z,3.97
2022-11-03T21:49:42.933Z,4.25
2022-11-03T21:52:10.941Z,4.15
2022-11-03T21:54:38.389Z,2.83
2022-11-03T21:57:06.441Z,2.33
2022-11-03T21:59:33.656Z,2.95
2022-11-03T22:02:02.176Z,2.15
2022-11-03T22:04:29.722Z,2.08
2022-11-03T22:06:57.104Z,2.13
2022-11-03T22:09:28.057Z,1.90
2022-11-03T22:11:55.652Z,1.70
2022-11-03T22:14:23.027Z,1.40
2022-11-03T22:16:50.506Z,1.52
2022-11-03T22:19:37.018Z,1.75
2022-11-03T22:22:23.060Z,1.63
2022-11-03T22:25:09.191Z,1.00
2022-11-03T22:27:36.644Z,2.08
2022-11-03T22:30:22.952Z,1.50
2022-11-03T22:32:50.369Z,1.88
2022-11-03T22:35:36.724Z,5.43
2022-11-03T22:38:04.085Z,4.78
2022-11-03T22:40:50.080Z,2.65
2022-11-03T22:43:40.686Z,2.72
2022-11-03T22:46:08.176Z,19.48
2022-11-03T22:48:35.527Z,3.40
2022-11-03T22:51:02.885Z,3.95
2022-11-03T22:53:49.049Z,3.17
2022-11-03T22:56:16.494Z,3.65
2022-11-03T22:58:43.923Z,2.92
2022-11-03T23:01:12.497Z,3.15
2022-11-03T23:03:39.928Z,3.53
2022-11-03T23:06:07.184Z,2.85
2022-11-03T23:08:34.438Z,2.35
2022-11-03T23:11:01.789Z,2.88
2022-11-03T23:13:29.074Z,3.72
2022-11-03T23:15:56.410Z,4.00
2022-11-03T23:18:42.495Z,3.22
2022-11-03T23:21:09.860Z,3.95
2022-11-03T23:23:56.264Z,4.68
2022-11-03T23:26:23.669Z,4.63
2022-11-03T23:28:51.033Z,4.47
2022-11-03T23:31:18.484Z,5.43
2022-11-03T23:33:45.832Z,5.63
2022-11-03T23:36:13.241Z,6.20
2022-11-03T23:38:40.524Z,6.63
2022-11-03T23:41:07.759Z,6.95
2022-11-03T23:43:35.003Z,7.32
2022-11-03T23:46:21.110Z,6.70
2022-11-03T23:48:48.458Z,7.40
2022-11-03T23:51:15.812Z,6.93
2022-11-03T23:53:43.175Z,7.35
2022-11-03T23:56:29.358Z,7.72
2022-11-03T23:58:56.693Z,7.30
